createdAt,value
2019-01-11T00:03:04.053Z,204.57
2019-01-11T00:08:09.468Z,145.13
2019-01-11T00:13:14.465Z,115.70
2019-01-11T00:18:19.477Z,163.50
2019-01-11T00:23:24.573Z,207.43
2019-01-11T00:28:29.580Z,171.10
2019-01-11T00:33:34.580Z,171.63
2019-01-11T00:38:39.605Z,237.07
2019-01-11T00:43:44.645Z,160.90
2019-01-11T00:48:49.704Z,267.80
2019-01-11T00:53:54.725Z,183.23
2019-01-11T00:58:59.810Z,162.23
2019-01-11T01:04:04.821Z,277.10
2019-01-11T01:09:10.722Z,171.20
2019-01-11T01:14:15.746Z,310.70
2019-01-11T01:19:20.742Z,214.77
2019-01-11T01:24:26.059Z,235.00
2019-01-11T01:29:31.060Z,299.83
2019-01-11T01:34:36.056Z,242.73
2019-01-11T01:39:41.296Z,242.27
2019-01-11T01:44:46.313Z,254.20
2019-01-11T01:49:51.296Z,148.30
2019-01-11T01:54:56.305Z,172.40
2019-01-11T02:00:01.328Z,203.40
2019-01-11T02:05:07.768Z,184.73
2019-01-11T02:10:14.244Z,166.30
2019-01-11T02:15:19.281Z,206.33
2019-01-11T02:20:24.321Z,222.23
2019-01-11T02:25:29.307Z,167.93
2019-01-11T02:30:34.305Z,172.77
2019-01-11T02:35:39.312Z,148.53
2019-01-11T02:40:44.301Z,186.13
2019-01-11T02:45:49.309Z,171.87
2019-01-11T02:50:54.300Z,179.57
2019-01-11T02:55:59.316Z,172.70
2019-01-11T03:01:04.347Z,146.27
2019-01-11T03:06:09.364Z,139.33
2019-01-11T03:11:14.357Z,139.20
2019-01-11T03:16:19.355Z,132.70
2019-01-11T03:21:24.367Z,127.40
2019-01-11T03:26:29.377Z,112.33
2019-01-11T03:31:37.397Z,90.37
2019-01-11T03:36:42.383Z,101.27
2019-01-11T03:41:59.569Z,102.03
2019-01-11T03:47:06.392Z,128.13
2019-01-11T03:52:11.366Z,80.73
2019-01-11T03:57:16.360Z,149.00
2019-01-11T04:02:21.434Z,96.70
2019-01-11T04:07:26.370Z,85.97
2019-01-11T04:12:31.404Z,92.17
2019-01-11T04:17:36.419Z,71.67
2019-01-11T04:22:56.040Z,96.90
2019-01-11T04:28:01.053Z,81.47
2019-01-11T04:33:06.054Z,80.97
2019-01-11T04:38:11.250Z,83.93
2019-01-11T04:43:16.188Z,105.73
2019-01-11T04:48:21.189Z,66.67
2019-01-11T04:53:26.177Z,73.97
2019-01-11T04:58:31.173Z,66.97
2019-01-11T05:03:36.176Z,72.83
2019-01-11T05:08:41.161Z,73.53
2019-01-11T05:13:51.830Z,79.57
2019-01-11T05:18:56.826Z,68.20
2019-01-11T05:24:01.889Z,67.43
2019-01-11T05:29:06.897Z,64.93
2019-01-11T05:34:11.874Z,58.70
2019-01-11T05:39:16.861Z,58.73
2019-01-11T05:44:21.841Z,58.17
2019-01-11T05:49:26.848Z,64.63
2019-01-11T05:54:31.837Z,59.87
2019-01-11T05:59:36.817Z,55.73
2019-01-11T06:04:46.332Z,50.13
2019-01-11T06:09:51.334Z,77.73
2019-01-11T06:14:56.308Z,48.47
2019-01-11T06:20:01.293Z,63.07
2019-01-11T06:25:07.098Z,59.27
2019-01-11T06:30:13.919Z,58.83
2019-01-11T06:35:18.900Z,80.43
2019-01-11T06:40:23.905Z,65.67
2019-01-11T06:45:28.912Z,61.80
2019-01-11T06:50:36.569Z,69.43
2019-01-11T06:55:40.532Z,74.37
2019-01-11T07:00:45.513Z,70.60
2019-01-11T07:05:50.557Z,68.23
2019-01-11T07:10:55.553Z,58.03
2019-01-11T07:16:00.530Z,66.10
2019-01-11T07:21:05.736Z,99.23
2019-01-11T07:26:10.737Z,58.87
2019-01-11T07:31:18.392Z,69.63
2019-01-11T07:36:42.350Z,88.03
2019-01-11T07:41:47.349Z,94.53
2019-01-11T07:46:52.349Z,73.20
2019-01-11T07:51:57.405Z,64.27
2019-01-11T07:57:02.401Z,61.87
2019-01-11T08:02:07.398Z,166.47
2019-01-11T08:07:12.392Z,89.80
2019-01-11T08:12:17.369Z,77.80
2019-01-11T08:17:22.356Z,83.80
2019-01-11T08:22:38.138Z,73.20
2019-01-11T08:27:43.750Z,75.57
2019-01-11T08:32:48.732Z,96.13
2019-01-11T08:37:53.990Z,67.30
2019-01-11T08:42:58.985Z,95.87
2019-01-11T08:48:04.106Z,71.80
2019-01-11T08:53:09.391Z,70.77
2019-01-11T08:58:14.396Z,162.30
2019-01-11T09:03:19.403Z,72.97
2019-01-11T09:08:24.394Z,65.50
2019-01-11T09:13:30.423Z,75.73
2019-01-11T09:18:44.447Z,63.97
2019-01-11T09:23:49.453Z,115.50
2019-01-11T09:28:54.440Z,61.30
2019-01-11T09:33:59.438Z,55.37
2019-01-11T09:39:05.928Z,88.37
2019-01-11T09:44:10.940Z,58.87
2019-01-11T09:49:15.978Z,65.90
2019-01-11T09:54:23.094Z,78.03
2019-01-11T09:59:28.078Z,184.00
2019-01-11T10:04:36.344Z,77.63
2019-01-11T10:09:41.396Z,65.30
2019-01-11T10:14:46.414Z,29.47
2019-01-11T10:19:51.385Z,46.37
2019-01-11T10:24:56.373Z,38.10
2019-01-11T10:30:01.410Z,39.07
2019-01-11T10:35:06.780Z,88.17
2019-01-11T10:40:13.720Z,50.37
2019-01-11T10:45:21.219Z,87.93
2019-01-11T10:50:26.214Z,94.50
2019-01-11T10:55:31.204Z,61.40
2019-01-11T11:00:36.190Z,98.17
2019-01-11T11:05:41.632Z,91.93
2019-01-11T11:10:46.608Z,94.30
2019-01-11T11:15:51.601Z,73.57
2019-01-11T11:20:56.621Z,74.90
2019-01-11T11:26:01.668Z,114.37
2019-01-11T11:31:06.673Z,166.77
2019-01-11T11:36:11.684Z,58.87
2019-01-11T11:41:16.689Z,57.73
2019-01-11T11:46:21.795Z,42.13
2019-01-11T11:51:26.732Z,49.43
2019-01-11T11:56:31.771Z,36.27
2019-01-11T12:01:37.174Z,36.90
2019-01-11T12:06:42.177Z,44.40
2019-01-11T12:11:47.177Z,80.37
2019-01-11T12:16:52.184Z,38.00
2019-01-11T12:22:01.629Z,31.67
2019-01-11T12:27:03.783Z,56.13
2019-01-11T12:32:09.121Z,26.47
2019-01-11T12:37:14.247Z,52.47
2019-01-11T12:42:19.296Z,36.07
2019-01-11T12:47:24.288Z,35.97
2019-01-11T12:52:29.268Z,44.40
2019-01-11T12:57:34.487Z,33.00
2019-01-11T13:02:39.487Z,36.90
2019-01-11T13:07:44.586Z,38.33
2019-01-11T13:12:49.589Z,39.63
2019-01-11T13:17:54.777Z,44.33
2019-01-11T13:23:00.211Z,131.50
2019-01-11T13:28:05.618Z,64.63
2019-01-11T13:33:10.602Z,91.57
2019-01-11T13:38:15.743Z,36.63
2019-01-11T13:43:23.019Z,37.23
2019-01-11T13:48:28.008Z,66.07
2019-01-11T13:53:33.058Z,46.90
2019-01-11T13:58:38.078Z,50.27
2019-01-11T14:03:43.078Z,66.03
2019-01-11T14:08:48.062Z,56.97
2019-01-11T14:13:53.043Z,74.87
2019-01-11T14:18:58.027Z,63.57
2019-01-11T14:24:03.021Z,42.53
2019-01-11T14:29:08.071Z,45.03
2019-01-11T14:34:13.052Z,47.37
2019-01-11T14:39:18.228Z,39.30
2019-01-11T14:44:23.473Z,37.53
2019-01-11T14:49:28.812Z,31.43
2019-01-11T14:54:33.840Z,31.70
2019-01-11T14:59:39.102Z,51.10
2019-01-11T15:04:44.306Z,26.67
2019-01-11T15:09:49.280Z,49.73
2019-01-11T15:14:56.517Z,31.70
2019-01-11T15:20:01.483Z,55.63
2019-01-11T15:25:08.563Z,35.47
2019-01-11T15:30:22.625Z,50.27
2019-01-11T15:35:27.582Z,38.43
2019-01-11T15:40:36.497Z,82.00
2019-01-11T15:45:39.368Z,29.93
2019-01-11T15:51:09.427Z,29.30
2019-01-11T15:56:16.421Z,34.97
2019-01-11T16:01:21.387Z,50.83
2019-01-11T16:06:33.961Z,48.30
2019-01-11T16:11:43.639Z,114.83
2019-01-11T16:17:10.614Z,69.50
2019-01-11T16:22:15.626Z,65.87
2019-01-11T16:27:20.699Z,57.13
2019-01-11T16:32:25.655Z,47.90
2019-01-11T16:37:30.786Z,54.87
2019-01-11T16:42:38.847Z,69.17
2019-01-11T16:47:42.419Z,43.27
2019-01-11T16:52:47.375Z,51.37
2019-01-11T16:57:52.402Z,75.17
2019-01-11T17:02:57.371Z,45.33
2019-01-11T17:08:02.327Z,41.07
2019-01-11T17:13:07.308Z,70.77
2019-01-11T17:18:12.272Z,57.53
2019-01-11T17:23:17.323Z,47.23
2019-01-11T17:28:22.275Z,77.67
2019-01-11T17:33:27.230Z,54.37
2019-01-11T17:38:32.188Z,44.20
2019-01-11T17:43:37.138Z,50.43
2019-01-11T17:48:42.120Z,49.60
2019-01-11T17:53:47.074Z,50.13
2019-01-11T17:58:52.032Z,123.73
2019-01-11T18:03:56.990Z,41.07
2019-01-11T18:09:01.951Z,34.80
2019-01-11T18:14:06.901Z,58.93
2019-01-11T18:19:11.855Z,34.57
2019-01-11T18:24:16.860Z,60.60
2019-01-11T18:29:22.387Z,38.80
2019-01-11T18:34:27.420Z,42.03
2019-01-11T18:39:32.365Z,67.93
2019-01-11T18:44:37.485Z,53.13
2019-01-11T18:49:42.424Z,37.37
2019-01-11T18:54:47.392Z,40.50
2019-01-11T18:59:52.395Z,47.43
2019-01-11T19:04:57.377Z,53.03
2019-01-11T19:10:02.336Z,58.10
2019-01-11T19:15:11.251Z,50.90
2019-01-11T19:20:27.383Z,73.43
2019-01-11T19:25:32.347Z,90.70
2019-01-11T19:30:37.329Z,78.03
2019-01-11T19:35:42.369Z,62.10
2019-01-11T19:40:47.566Z,76.00
2019-01-11T19:45:52.526Z,67.23
2019-01-11T19:50:59.158Z,59.70
2019-01-11T19:56:04.566Z,66.90
2019-01-11T20:01:09.946Z,60.63
2019-01-11T20:06:15.194Z,55.07
2019-01-11T20:11:22.044Z,54.73
2019-01-11T20:16:27.239Z,34.93
2019-01-11T20:21:32.196Z,44.23
2019-01-11T20:26:37.339Z,39.67
2019-01-11T20:31:42.291Z,41.13
2019-01-11T20:37:10.863Z,59.07
2019-01-11T20:42:15.836Z,66.27
2019-01-11T20:47:20.885Z,53.77
2019-01-11T20:52:25.983Z,38.23
2019-01-11T20:57:32.387Z,32.27
2019-01-11T21:02:37.681Z,32.50
2019-01-11T21:07:42.859Z,32.07
2019-01-11T21:12:47.865Z,27.47
2019-01-11T21:17:53.180Z,37.13
2019-01-11T21:22:58.167Z,26.60
2019-01-11T21:28:03.445Z,32.67
2019-01-11T21:33:08.611Z,32.57
2019-01-11T21:38:13.569Z,38.40
2019-01-11T21:43:18.534Z,38.67
2019-01-11T21:48:23.483Z,36.30
2019-01-11T21:53:28.439Z,25.43
2019-01-11T21:58:33.788Z,30.37
2019-01-11T22:03:38.743Z,33.57
2019-01-11T22:08:43.699Z,29.53
2019-01-11T22:13:48.673Z,24.63
2019-01-11T22:18:53.609Z,20.40
2019-01-11T22:24:03.127Z,19.50
2019-01-11T22:29:05.460Z,20.23
2019-01-11T22:34:10.479Z,26.80
2019-01-11T22:39:15.426Z,17.73
2019-01-11T22:44:20.391Z,19.80
2019-01-11T22:49:25.364Z,36.20
2019-01-11T22:54:30.310Z,20.73
2019-01-11T22:59:35.259Z,22.80
2019-01-11T23:04:40.211Z,25.47
2019-01-11T23:10:12.595Z,20.87
2019-01-11T23:15:23.099Z,22.37
2019-01-11T23:20:28.064Z,26.33
2019-01-11T23:25:33.021Z,43.17
2019-01-11T23:30:37.985Z,26.63
2019-01-11T23:35:42.983Z,20.43
2019-01-11T23:40:47.936Z,26.50
2019-01-11T23:45:52.879Z,45.13
2019-01-11T23:50:59.681Z,59.73
2019-01-11T23:56:04.626Z,67.27
